Pamplona, Spain
Current Conditions -  °F | °C
As of 5:00 PM on Friday 19 Dec 2014 (Local Time) from LEPP Reporting Station
Scattered Clouds Scattered Clouds  
Wind Chill: 44°   Ceiling: Unl
Heat Index: 48°   Visibility: 6mi
Dew Point: 39°   Wind: 10mph
Humidity: 71%   Direction: 330°NNW
Pressure: 30.45"   Gusts: NA
Location:  42.82°N, 1.64°W
Report Text: LEPP 191600Z 33009KT 290V350 9999 SCT026 09/04 Q1031
Loading
Personal Weather Stations






























Interactive Weather Map New forecast layout! Learn more

10-Day Weather Forecast

Advertisements
Track Severe Weather on mobile